createdAt,value
2023-02-23T00:01:17.274Z,32.88
2023-02-23T00:07:21.904Z,33.38
2023-02-23T00:13:23.578Z,34.58
2023-02-23T00:19:25.896Z,34.25
2023-02-23T00:25:31.067Z,34.63
2023-02-23T00:31:34.085Z,34.58
2023-02-23T00:37:36.185Z,37.05
2023-02-23T00:43:47.629Z,36.72
2023-02-23T00:49:49.430Z,34.95
2023-02-23T00:55:51.170Z,36.45
2023-02-23T01:01:53.044Z,36.97
2023-02-23T01:07:56.197Z,38.13
2023-02-23T01:13:59.991Z,41.17
2023-02-23T01:20:01.898Z,42.70
2023-02-23T01:26:04.008Z,40.67
2023-02-23T01:32:06.991Z,42.63
2023-02-23T01:38:08.860Z,43.42
2023-02-23T01:44:13.569Z,43.80
2023-02-23T01:50:16.757Z,42.90
2023-02-23T01:56:24.464Z,45.00
2023-02-23T02:02:33.444Z,44.80
2023-02-23T02:08:45.058Z,46.75
2023-02-23T02:14:46.932Z,44.65
2023-02-23T02:21:24.153Z,44.70
2023-02-23T02:27:44.964Z,46.75
2023-02-23T02:34:00.185Z,48.95
2023-02-23T02:40:27.077Z,49.63
2023-02-23T02:46:34.914Z,47.42
2023-02-23T02:52:52.355Z,51.45
2023-02-23T02:58:54.728Z,52.33
2023-02-23T03:05:15.351Z,50.90
2023-02-23T03:11:36.328Z,48.35
2023-02-23T03:18:49.400Z,46.22
2023-02-23T03:25:18.691Z,49.83
2023-02-23T03:31:56.085Z,49.85
2023-02-23T03:38:24.719Z,47.10
2023-02-23T03:44:56.686Z,46.85
2023-02-23T03:51:23.646Z,44.97
2023-02-23T03:57:48.574Z,50.28
2023-02-23T04:04:11.811Z,47.80
2023-02-23T04:10:32.109Z,49.67
2023-02-23T04:16:34.764Z,49.58
2023-02-23T04:22:36.604Z,50.65
2023-02-23T04:28:38.417Z,49.30
2023-02-23T04:34:40.254Z,52.85
2023-02-23T04:40:42.063Z,43.53
2023-02-23T04:46:43.859Z,41.50
2023-02-23T04:52:45.898Z,41.85
2023-02-23T04:58:47.690Z,42.97
2023-02-23T05:04:49.521Z,43.25
2023-02-23T05:10:51.313Z,43.42
2023-02-23T05:16:53.109Z,40.08
2023-02-23T05:22:54.841Z,42.63
2023-02-23T05:28:57.105Z,39.03
2023-02-23T05:35:02.505Z,43.10
2023-02-23T05:41:06.253Z,48.85
2023-02-23T05:47:08.025Z,51.90
2023-02-23T05:53:10.421Z,50.63
2023-02-23T05:59:13.277Z,49.22
2023-02-23T06:05:15.652Z,48.03
2023-02-23T06:11:17.887Z,42.00
2023-02-23T06:17:19.970Z,41.03
2023-02-23T06:23:22.166Z,42.58
2023-02-23T06:29:24.030Z,47.55
2023-02-23T06:35:27.245Z,46.30
2023-02-23T06:41:29.130Z,45.13
2023-02-23T06:47:30.925Z,47.50
2023-02-23T06:53:33.645Z,44.80
2023-02-23T06:59:36.662Z,45.70
2023-02-23T07:05:38.511Z,45.45
2023-02-23T07:11:41.643Z,45.20
2023-02-23T07:17:44.097Z,49.50
2023-02-23T07:23:47.928Z,45.53
2023-02-23T07:29:49.802Z,42.15
2023-02-23T07:35:52.131Z,41.67
2023-02-23T07:41:53.917Z,41.88
2023-02-23T07:47:59.342Z,41.45
2023-02-23T07:54:05.471Z,40.80
2023-02-23T08:00:07.765Z,40.08
2023-02-23T08:06:16.687Z,40.67
2023-02-23T08:12:18.547Z,39.22
2023-02-23T08:18:20.638Z,39.30
2023-02-23T08:24:22.987Z,37.92
2023-02-23T08:30:24.923Z,36.35
2023-02-23T08:36:26.894Z,35.83
2023-02-23T08:42:28.848Z,36.17
2023-02-23T08:48:30.634Z,36.05
2023-02-23T08:54:32.372Z,37.55
2023-02-23T09:00:34.235Z,36.10
2023-02-23T09:06:37.401Z,37.50
2023-02-23T09:12:39.170Z,38.08
2023-02-23T09:18:40.943Z,35.40
2023-02-23T09:24:42.833Z,36.33
2023-02-23T09:30:45.590Z,38.17
2023-02-23T09:36:47.438Z,39.58
2023-02-23T09:43:00.984Z,39.97
2023-02-23T09:49:05.635Z,40.25
2023-02-23T09:55:10.454Z,42.17
2023-02-23T10:01:24.528Z,42.25
2023-02-23T10:07:48.954Z,43.40
2023-02-23T10:14:12.184Z,42.28
2023-02-23T10:20:23.351Z,45.85
2023-02-23T10:26:44.015Z,51.30
2023-02-23T10:32:49.483Z,52.08
2023-02-23T10:38:51.278Z,54.90
2023-02-23T10:44:53.002Z,58.95
2023-02-23T10:51:02.751Z,60.20
2023-02-23T10:57:07.163Z,59.22
2023-02-23T11:03:27.643Z,64.55
2023-02-23T11:09:45.035Z,62.35
2023-02-23T11:15:51.008Z,60.58
2023-02-23T11:21:53.210Z,63.17
2023-02-23T11:27:56.987Z,59.55
2023-02-23T11:33:59.092Z,58.85
2023-02-23T11:40:03.082Z,58.13
2023-02-23T11:46:05.572Z,57.30
2023-02-23T11:52:17.041Z,57.13
2023-02-23T11:58:24.247Z,56.83
2023-02-23T12:04:33.400Z,55.15
2023-02-23T12:10:41.782Z,56.13
2023-02-23T12:16:52.046Z,53.30
2023-02-23T12:23:02.473Z,49.35
2023-02-23T12:29:18.955Z,52.75
2023-02-23T12:35:30.185Z,53.00
2023-02-23T12:41:38.841Z,51.92
2023-02-23T12:47:49.237Z,51.15
2023-02-23T12:53:53.013Z,52.83
2023-02-23T13:00:30.333Z,51.55
2023-02-23T13:06:50.692Z,54.80
2023-02-23T13:13:03.033Z,54.08
2023-02-23T13:19:33.980Z,51.95
2023-02-23T13:25:51.046Z,54.88
2023-02-23T13:31:53.599Z,57.35
2023-02-23T13:38:04.027Z,53.22
2023-02-23T13:44:22.568Z,56.60
2023-02-23T13:50:48.434Z,55.90
2023-02-23T13:56:55.321Z,55.30
2023-02-23T14:02:57.548Z,57.40
2023-02-23T14:09:29.195Z,52.92
2023-02-23T14:15:40.248Z,53.03
2023-02-23T14:21:56.106Z,53.88
2023-02-23T14:28:02.676Z,53.78
2023-02-23T14:34:12.878Z,56.05
2023-02-23T14:40:26.136Z,55.38
2023-02-23T14:46:28.299Z,55.10
2023-02-23T14:52:35.119Z,52.60
2023-02-23T14:58:36.889Z,53.92
2023-02-23T15:04:39.568Z,52.92
2023-02-23T15:10:47.709Z,53.85
2023-02-23T15:16:51.041Z,55.10
2023-02-23T15:22:55.263Z,53.55
2023-02-23T15:29:23.093Z,54.75
2023-02-23T15:35:25.621Z,56.00
2023-02-23T15:41:35.984Z,55.97
2023-02-23T15:47:38.040Z,53.80
2023-02-23T15:53:41.032Z,44.47
2023-02-23T15:59:47.841Z,40.78
2023-02-23T16:06:06.798Z,37.45
2023-02-23T16:12:17.905Z,36.17
2023-02-23T16:18:26.719Z,31.02
2023-02-23T16:24:29.467Z,29.92
2023-02-23T16:30:31.253Z,29.98
2023-02-23T16:36:41.024Z,26.30
2023-02-23T16:42:42.951Z,23.88
2023-02-23T16:48:44.791Z,23.42
2023-02-23T16:54:48.536Z,22.58
2023-02-23T17:00:51.876Z,24.63
2023-02-23T17:06:58.345Z,27.17
2023-02-23T17:13:06.300Z,32.78
2023-02-23T17:19:08.055Z,32.33
2023-02-23T17:25:10.958Z,33.92
2023-02-23T17:31:13.831Z,34.40
2023-02-23T17:37:15.591Z,31.55
2023-02-23T17:43:17.375Z,32.97
2023-02-23T17:49:19.338Z,33.90
2023-02-23T17:55:22.105Z,33.33
2023-02-23T18:01:24.293Z,30.65
2023-02-23T18:07:26.264Z,32.38
2023-02-23T18:13:29.219Z,28.40
2023-02-23T18:19:31.558Z,29.05
2023-02-23T18:25:33.361Z,28.90
2023-02-23T18:31:35.340Z,48.38
2023-02-23T18:37:37.167Z,34.35
2023-02-23T18:43:39.110Z,29.35
2023-02-23T18:50:06.774Z,29.77
2023-02-23T18:56:11.320Z,29.48
2023-02-23T19:02:13.040Z,26.13
2023-02-23T19:08:15.717Z,27.17
2023-02-23T19:14:21.979Z,26.35
2023-02-23T19:20:32.787Z,21.30
2023-02-23T19:26:37.194Z,19.33
2023-02-23T19:32:39.932Z,21.58
2023-02-23T19:38:45.627Z,20.45
2023-02-23T19:44:47.388Z,20.90
2023-02-23T19:50:49.524Z,23.00
2023-02-23T19:56:51.628Z,20.90
2023-02-23T20:02:56.588Z,21.33
2023-02-23T20:08:58.982Z,20.70
2023-02-23T20:15:01.408Z,23.50
2023-02-23T20:21:10.687Z,22.90
2023-02-23T20:27:12.467Z,23.20
2023-02-23T20:33:15.211Z,22.27
2023-02-23T20:39:20.344Z,24.42
2023-02-23T20:45:24.176Z,24.15
2023-02-23T20:51:26.424Z,24.33
2023-02-23T20:57:29.529Z,24.25
2023-02-23T21:03:31.340Z,24.15
2023-02-23T21:09:33.240Z,21.70
2023-02-23T21:15:35.658Z,22.73
2023-02-23T21:21:49.242Z,22.85
2023-02-23T21:27:51.544Z,21.50
2023-02-23T21:33:53.293Z,20.95
2023-02-23T21:39:55.120Z,22.75
2023-02-23T21:45:56.912Z,21.60
2023-02-23T21:51:58.898Z,22.63
2023-02-23T21:58:00.737Z,22.70
2023-02-23T22:04:04.760Z,24.08
2023-02-23T22:10:06.687Z,23.67
2023-02-23T22:16:08.744Z,23.13
2023-02-23T22:22:10.514Z,23.25
2023-02-23T22:28:12.281Z,20.55
2023-02-23T22:34:14.386Z,12.35
2023-02-23T22:40:16.662Z,8.30
2023-02-23T22:46:18.824Z,7.32
2023-02-23T22:52:20.621Z,5.00
2023-02-23T22:58:26.444Z,4.63
2023-02-23T23:04:28.362Z,4.68
2023-02-23T23:10:30.226Z,4.93
2023-02-23T23:16:34.284Z,4.75
2023-02-23T23:22:36.195Z,5.18
2023-02-23T23:28:40.656Z,4.72
2023-02-23T23:34:44.447Z,5.55
2023-02-23T23:40:46.968Z,5.70
2023-02-23T23:46:52.823Z,5.85
2023-02-23T23:52:54.719Z,7.15
2023-02-23T23:58:58.812Z,8.23
